createdAt,value
2022-11-10T18:33:08.860Z,11.90
2022-11-10T18:35:38.758Z,11.90
2022-11-10T18:38:10.701Z,11.90
2022-11-10T18:40:37.395Z,11.90
2022-11-10T18:43:07.377Z,11.90
2022-11-10T18:45:36.875Z,11.90
2022-11-10T18:48:04.671Z,11.90
2022-11-10T18:50:31.475Z,11.80
2022-11-10T18:52:58.275Z,11.80
2022-11-10T18:55:25.122Z,11.80
2022-11-10T18:57:52.883Z,11.80
2022-11-10T19:00:19.974Z,11.80
2022-11-10T19:02:46.675Z,11.80
2022-11-10T19:05:13.528Z,11.70
2022-11-10T19:07:40.276Z,11.70
2022-11-10T19:10:07.101Z,11.70
2022-11-10T19:12:35.898Z,11.70
2022-11-10T19:15:02.557Z,11.70
2022-11-10T19:17:29.309Z,11.70
2022-11-10T19:19:56.994Z,11.60
2022-11-10T19:22:26.728Z,11.60
2022-11-10T19:25:11.126Z,11.60
2022-11-10T19:27:38.246Z,11.60
2022-11-10T19:30:06.190Z,11.60
2022-11-10T19:32:35.871Z,11.50
2022-11-10T19:35:04.405Z,11.50
2022-11-10T19:37:35.051Z,11.50
2022-11-10T19:40:02.918Z,11.50
2022-11-10T19:42:29.780Z,11.50
2022-11-10T19:44:56.518Z,11.40
2022-11-10T19:47:23.647Z,11.40
2022-11-10T19:49:50.411Z,11.40
2022-11-10T19:52:17.080Z,11.30
2022-11-10T19:54:43.806Z,11.40
2022-11-10T19:57:10.862Z,11.30
2022-11-10T19:59:37.757Z,11.30
2022-11-10T20:02:04.863Z,11.20
2022-11-10T20:04:31.569Z,11.20
2022-11-10T20:07:16.734Z,11.20
2022-11-10T20:09:45.005Z,11.20
2022-11-10T20:12:12.779Z,11.20
2022-11-10T20:14:39.512Z,11.20
2022-11-10T20:17:06.334Z,11.10
2022-11-10T20:19:40.752Z,11.10
2022-11-10T20:22:08.118Z,11.10
2022-11-10T20:24:36.016Z,11.10
2022-11-10T20:27:02.985Z,11.10
2022-11-10T20:29:29.661Z,11.10
2022-11-10T20:31:56.417Z,11.10
2022-11-10T20:34:23.870Z,11.10
2022-11-10T20:36:50.613Z,11.10
2022-11-10T20:39:17.636Z,11.00
2022-11-10T20:41:44.341Z,11.00
2022-11-10T20:44:11.064Z,11.00
2022-11-10T20:46:54.148Z,11.00
2022-11-10T20:49:21.635Z,11.00
2022-11-10T20:51:48.300Z,11.00
2022-11-10T20:54:15.045Z,10.90
2022-11-10T20:56:41.673Z,10.90
2022-11-10T20:59:08.395Z,11.00
2022-11-10T21:01:35.270Z,10.90
2022-11-10T21:04:02.722Z,10.90
2022-11-10T21:06:29.389Z,10.90
2022-11-10T21:08:56.892Z,10.90
2022-11-10T21:11:42.397Z,10.90
2022-11-10T21:14:08.963Z,10.90
2022-11-10T21:16:35.591Z,10.90
2022-11-10T21:19:02.532Z,10.90
